sensor_id;sensor_type;location;lat;lon;timestamp;temperature;humidity
30290;DHT22;17105;55.652;37.710;2023-04-24T02:13:34;12.40;54.50
30290;DHT22;17105;55.652;37.710;2023-04-24T02:14:08;12.40;55.00
30290;DHT22;17105;55.652;37.710;2023-04-24T02:14:46;12.40;55.00
30290;DHT22;17105;55.652;37.710;2023-04-24T02:15:21;12.40;55.10
30290;DHT22;17105;55.652;37.710;2023-04-24T02:15:54;12.30;55.20
30290;DHT22;17105;55.652;37.710;2023-04-24T02:16:30;12.30;55.20
30290;DHT22;17105;55.652;37.710;2023-04-24T02:17:09;12.30;55.30
30290;DHT22;17105;55.652;37.710;2023-04-24T02:17:43;12.30;55.40
30290;DHT22;17105;55.652;37.710;2023-04-24T02:18:18;12.30;55.40
30290;DHT22;17105;55.652;37.710;2023-04-24T02:18:54;12.30;55.40
30290;DHT22;17105;55.652;37.710;2023-04-24T02:19:29;12.30;55.50
30290;DHT22;17105;55.652;37.710;2023-04-24T02:20:04;12.30;55.50
30290;DHT22;17105;55.652;37.710;2023-04-24T02:20:39;12.30;55.50
30290;DHT22;17105;55.652;37.710;2023-04-24T02:21:13;12.30;55.50
30290;DHT22;17105;55.652;37.710;2023-04-24T02:21:47;12.30;55.60
30290;DHT22;17105;55.652;37.710;2023-04-24T02:22:20;12.30;55.60
30290;DHT22;17105;55.652;37.710;2023-04-24T02:22:56;12.30;55.70
30290;DHT22;17105;55.652;37.710;2023-04-24T02:23:31;12.20;55.70
30290;DHT22;17105;55.652;37.710;2023-04-24T02:24:05;12.30;55.80
30290;DHT22;17105;55.652;37.710;2023-04-24T02:24:40;12.30;55.80
30290;DHT22;17105;55.652;37.710;2023-04-24T02:25:13;12.20;55.80
30290;DHT22;17105;55.652;37.710;2023-04-24T02:25:47;12.30;55.90
30290;DHT22;17105;55.652;37.710;2023-04-24T02:26:22;12.20;55.80
30290;DHT22;17105;55.652;37.710;2023-04-24T02:26:57;12.20;55.90
30290;DHT22;17105;55.652;37.710;2023-04-24T02:27:32;12.20;56.00
30290;DHT22;17105;55.652;37.710;2023-04-24T02:28:06;12.20;56.10
30290;DHT22;17105;55.652;37.710;2023-04-24T02:28:40;12.20;56.10
30290;DHT22;17105;55.652;37.710;2023-04-24T02:29:15;12.20;56.20
30290;DHT22;17105;55.652;37.710;2023-04-24T02:29:49;12.20;56.40
30290;DHT22;17105;55.652;37.710;2023-04-24T02:30:24;12.20;56.40
30290;DHT22;17105;55.652;37.710;2023-04-24T02:30:58;12.20;56.70
30290;DHT22;17105;55.652;37.710;2023-04-24T02:31:33;12.20;56.70
30290;DHT22;17105;55.652;37.710;2023-04-24T02:32:08;12.20;56.70
30290;DHT22;17105;55.652;37.710;2023-04-24T02:32:45;12.20;56.70
30290;DHT22;17105;55.652;37.710;2023-04-24T02:33:19;12.20;56.80
30290;DHT22;17105;55.652;37.710;2023-04-24T02:33:53;12.20;56.80
30290;DHT22;17105;55.652;37.710;2023-04-24T02:34:28;12.20;56.80
30290;DHT22;17105;55.652;37.710;2023-04-24T02:35:06;12.20;56.80
30290;DHT22;17105;55.652;37.710;2023-04-24T02:35:41;12.20;56.80
30290;DHT22;17105;55.652;37.710;2023-04-24T02:36:17;12.20;56.80
30290;DHT22;17105;55.652;37.710;2023-04-24T02:36:51;12.20;56.90
30290;DHT22;17105;55.652;37.710;2023-04-24T02:37:27;12.20;57.00
30290;DHT22;17105;55.652;37.710;2023-04-24T02:38:02;12.20;57.10
30290;DHT22;17105;55.652;37.710;2023-04-24T02:38:36;12.20;57.30
30290;DHT22;17105;55.652;37.710;2023-04-24T02:39:11;12.20;57.20
30290;DHT22;17105;55.652;37.710;2023-04-24T02:39:46;12.20;57.20
30290;DHT22;17105;55.652;37.710;2023-04-24T02:40:20;12.20;57.10
30290;DHT22;17105;55.652;37.710;2023-04-24T02:40:54;12.20;57.20
30290;DHT22;17105;55.652;37.710;2023-04-24T02:41:28;12.20;57.20
30290;DHT22;17105;55.652;37.710;2023-04-24T02:42:05;12.20;57.40
30290;DHT22;17105;55.652;37.710;2023-04-24T02:42:41;12.20;57.40
30290;DHT22;17105;55.652;37.710;2023-04-24T02:43:15;12.20;57.30
30290;DHT22;17105;55.652;37.710;2023-04-24T02:43:49;12.20;57.40
30290;DHT22;17105;55.652;37.710;2023-04-24T02:44:22;12.20;57.30
30290;DHT22;17105;55.652;37.710;2023-04-24T02:44:57;12.20;57.30
30290;DHT22;17105;55.652;37.710;2023-04-24T02:45:31;12.30;57.40
30290;DHT22;17105;55.652;37.710;2023-04-24T02:46:04;12.30;57.50
30290;DHT22;17105;55.652;37.710;2023-04-24T02:46:39;12.30;57.50
30290;DHT22;17105;55.652;37.710;2023-04-24T02:47:15;12.30;57.60
30290;DHT22;17105;55.652;37.710;2023-04-24T02:47:49;12.30;57.60
30290;DHT22;17105;55.652;37.710;2023-04-24T02:48:24;12.30;57.80
30290;DHT22;17105;55.652;37.710;2023-04-24T02:48:57;12.30;57.80
30290;DHT22;17105;55.652;37.710;2023-04-24T02:49:33;12.30;57.80
30290;DHT22;17105;55.652;37.710;2023-04-24T02:50:09;12.30;57.90
30290;DHT22;17105;55.652;37.710;2023-04-24T02:50:44;12.30;58.00
30290;DHT22;17105;55.652;37.710;2023-04-24T02:51:18;12.30;58.10
30290;DHT22;17105;55.652;37.710;2023-04-24T02:51:53;12.30;58.10
30290;DHT22;17105;55.652;37.710;2023-04-24T02:52:26;12.40;58.20
30290;DHT22;17105;55.652;37.710;2023-04-24T02:52:59;12.40;58.20
30290;DHT22;17105;55.652;37.710;2023-04-24T02:53:34;12.40;58.20
30290;DHT22;17105;55.652;37.710;2023-04-24T02:54:08;12.40;58.20
30290;DHT22;17105;55.652;37.710;2023-04-24T02:54:45;12.40;58.30
30290;DHT22;17105;55.652;37.710;2023-04-24T02:55:19;12.40;58.40
30290;DHT22;17105;55.652;37.710;2023-04-24T02:55:54;12.40;58.40
30290;DHT22;17105;55.652;37.710;2023-04-24T02:56:29;12.40;58.50
30290;DHT22;17105;55.652;37.710;2023-04-24T02:57:05;12.50;58.50
30290;DHT22;17105;55.652;37.710;2023-04-24T02:57:43;12.50;58.50
30290;DHT22;17105;55.652;37.710;2023-04-24T02:58:18;12.50;58.40
30290;DHT22;17105;55.652;37.710;2023-04-24T02:58:54;12.50;58.40
30290;DHT22;17105;55.652;37.710;2023-04-24T02:59:28;12.50;58.50
30290;DHT22;17105;55.652;37.710;2023-04-24T03:00:04;12.50;58.50
30290;DHT22;17105;55.652;37.710;2023-04-24T03:00:40;12.60;58.60
30290;DHT22;17105;55.652;37.710;2023-04-24T03:01:13;12.60;58.50
30290;DHT22;17105;55.652;37.710;2023-04-24T03:01:49;12.60;58.50
30290;DHT22;17105;55.652;37.710;2023-04-24T03:02:23;12.60;58.40
30290;DHT22;17105;55.652;37.710;2023-04-24T03:02:58;12.60;58.40
30290;DHT22;17105;55.652;37.710;2023-04-24T03:03:34;12.60;58.40
30290;DHT22;17105;55.652;37.710;2023-04-24T03:04:10;12.70;58.40
30290;DHT22;17105;55.652;37.710;2023-04-24T03:04:46;12.70;58.50
30290;DHT22;17105;55.652;37.710;2023-04-24T03:05:21;12.70;58.50
30290;DHT22;17105;55.652;37.710;2023-04-24T03:05:55;12.80;58.60
30290;DHT22;17105;55.652;37.710;2023-04-24T03:06:30;12.80;58.70
30290;DHT22;17105;55.652;37.710;2023-04-24T03:07:05;12.90;58.80
30290;DHT22;17105;55.652;37.710;2023-04-24T03:07:38;13.00;58.80
30290;DHT22;17105;55.652;37.710;2023-04-24T03:08:14;13.00;58.70
30290;DHT22;17105;55.652;37.710;2023-04-24T03:08:49;13.00;58.60
30290;DHT22;17105;55.652;37.710;2023-04-24T03:09:23;13.10;58.60
30290;DHT22;17105;55.652;37.710;2023-04-24T03:09:58;13.10;58.40
30290;DHT22;17105;55.652;37.710;2023-04-24T03:10:32;13.20;58.00
30290;DHT22;17105;55.652;37.710;2023-04-24T03:11:08;13.20;57.80
30290;DHT22;17105;55.652;37.710;2023-04-24T03:11:43;13.30;57.80
30290;DHT22;17105;55.652;37.710;2023-04-24T03:12:16;13.40;57.80
30290;DHT22;17105;55.652;37.710;2023-04-24T03:12:51;13.50;57.70
30290;DHT22;17105;55.652;37.710;2023-04-24T03:13:27;13.50;57.30
30290;DHT22;17105;55.652;37.710;2023-04-24T03:14:01;13.60;56.70
30290;DHT22;17105;55.652;37.710;2023-04-24T03:14:35;13.70;56.50
30290;DHT22;17105;55.652;37.710;2023-04-24T03:15:09;13.70;56.40
30290;DHT22;17105;55.652;37.710;2023-04-24T03:15:44;13.80;56.20
30290;DHT22;17105;55.652;37.710;2023-04-24T03:16:19;13.80;55.90
30290;DHT22;17105;55.652;37.710;2023-04-24T03:16:54;13.90;55.60
30290;DHT22;17105;55.652;37.710;2023-04-24T03:17:27;13.90;55.10
30290;DHT22;17105;55.652;37.710;2023-04-24T03:18:03;14.00;55.10
30290;DHT22;17105;55.652;37.710;2023-04-24T03:18:37;14.10;55.20
30290;DHT22;17105;55.652;37.710;2023-04-24T03:19:12;14.10;55.20
30290;DHT22;17105;55.652;37.710;2023-04-24T03:20:00;14.20;55.20
30290;DHT22;17105;55.652;37.710;2023-04-24T03:20:34;14.30;55.20
30290;DHT22;17105;55.652;37.710;2023-04-24T03:21:10;14.30;55.10
30290;DHT22;17105;55.652;37.710;2023-04-24T03:21:46;14.40;54.90
30290;DHT22;17105;55.652;37.710;2023-04-24T03:22:22;14.50;54.70
30290;DHT22;17105;55.652;37.710;2023-04-24T03:22:56;14.50;54.60
30290;DHT22;17105;55.652;37.710;2023-04-24T03:23:31;14.50;54.40
30290;DHT22;17105;55.652;37.710;2023-04-24T03:24:07;14.50;54.10
30290;DHT22;17105;55.652;37.710;2023-04-24T03:24:42;14.60;53.70
30290;DHT22;17105;55.652;37.710;2023-04-24T03:25:21;14.60;53.30
30290;DHT22;17105;55.652;37.710;2023-04-24T03:25:57;14.70;52.40
30290;DHT22;17105;55.652;37.710;2023-04-24T03:26:31;14.80;52.20
30290;DHT22;17105;55.652;37.710;2023-04-24T03:27:20;14.80;51.80
30290;DHT22;17105;55.652;37.710;2023-04-24T03:27:58;14.80;51.60
30290;DHT22;17105;55.652;37.710;2023-04-24T03:29:02;14.90;51.30
30290;DHT22;17105;55.652;37.710;2023-04-24T03:29:36;14.90;51.00
30290;DHT22;17105;55.652;37.710;2023-04-24T03:30:11;15.00;51.10
30290;DHT22;17105;55.652;37.710;2023-04-24T03:30:54;15.00;51.10
30290;DHT22;17105;55.652;37.710;2023-04-24T03:31:34;15.00;51.00
30290;DHT22;17105;55.652;37.710;2023-04-24T03:32:08;15.10;50.90
30290;DHT22;17105;55.652;37.710;2023-04-24T03:32:46;15.10;50.70
30290;DHT22;17105;55.652;37.710;2023-04-24T03:33:26;15.20;50.60
30290;DHT22;17105;55.652;37.710;2023-04-24T03:34:05;15.20;50.20
30290;DHT22;17105;55.652;37.710;2023-04-24T03:34:40;15.30;50.20
30290;DHT22;17105;55.652;37.710;2023-04-24T03:35:16;15.30;49.90
30290;DHT22;17105;55.652;37.710;2023-04-24T03:35:50;15.40;49.70
30290;DHT22;17105;55.652;37.710;2023-04-24T03:36:26;15.40;49.60
30290;DHT22;17105;55.652;37.710;2023-04-24T03:37:01;15.50;49.80
30290;DHT22;17105;55.652;37.710;2023-04-24T03:37:37;15.50;49.80
30290;DHT22;17105;55.652;37.710;2023-04-24T03:38:29;15.50;49.80
30290;DHT22;17105;55.652;37.710;2023-04-24T03:39:16;15.60;49.40
30290;DHT22;17105;55.652;37.710;2023-04-24T03:39:57;15.60;49.30
30290;DHT22;17105;55.652;37.710;2023-04-24T03:40:32;15.70;49.20
30290;DHT22;17105;55.652;37.710;2023-04-24T03:41:08;15.70;48.90
30290;DHT22;17105;55.652;37.710;2023-04-24T03:41:50;15.70;48.70
30290;DHT22;17105;55.652;37.710;2023-04-24T03:42:29;15.80;48.40
30290;DHT22;17105;55.652;37.710;2023-04-24T03:43:04;15.80;48.30
30290;DHT22;17105;55.652;37.710;2023-04-24T03:43:41;15.80;48.00
30290;DHT22;17105;55.652;37.710;2023-04-24T03:44:16;15.80;47.90
30290;DHT22;17105;55.652;37.710;2023-04-24T03:44:51;15.80;47.60
30290;DHT22;17105;55.652;37.710;2023-04-24T03:45:29;15.90;47.50
30290;DHT22;17105;55.652;37.710;2023-04-24T03:46:04;15.90;47.50
30290;DHT22;17105;55.652;37.710;2023-04-24T03:46:42;15.90;47.40
30290;DHT22;17105;55.652;37.710;2023-04-24T03:47:17;15.90;47.30
30290;DHT22;17105;55.652;37.710;2023-04-24T03:47:52;16.00;47.30
30290;DHT22;17105;55.652;37.710;2023-04-24T03:48:26;16.00;47.30
30290;DHT22;17105;55.652;37.710;2023-04-24T03:49:01;16.10;47.20
30290;DHT22;17105;55.652;37.710;2023-04-24T03:49:40;16.10;47.00
30290;DHT22;17105;55.652;37.710;2023-04-24T03:58:21;17.40;45.10
30290;DHT22;17105;55.652;37.710;2023-04-24T03:58:57;17.50;45.60
30290;DHT22;17105;55.652;37.710;2023-04-24T03:59:30;17.60;45.30
30290;DHT22;17105;55.652;37.710;2023-04-24T04:27:13;21.50;37.90
30290;DHT22;17105;55.652;37.710;2023-04-24T04:27:53;23.30;36.30
30290;DHT22;17105;55.652;37.710;2023-04-24T04:28:27;23.30;36.40
30290;DHT22;17105;55.652;37.710;2023-04-24T04:29:03;23.30;36.00
30290;DHT22;17105;55.652;37.710;2023-04-24T04:29:38;23.30;35.80
30290;DHT22;17105;55.652;37.710;2023-04-24T04:30:15;23.30;35.60
30290;DHT22;17105;55.652;37.710;2023-04-24T04:30:57;23.30;35.40
30290;DHT22;17105;55.652;37.710;2023-04-24T04:31:30;23.20;35.30
30290;DHT22;17105;55.652;37.710;2023-04-24T04:32:07;23.20;35.20
30290;DHT22;17105;55.652;37.710;2023-04-24T04:32:42;23.10;35.20
30290;DHT22;17105;55.652;37.710;2023-04-24T04:33:16;23.10;35.00
30290;DHT22;17105;55.652;37.710;2023-04-24T04:33:50;23.00;35.10
30290;DHT22;17105;55.652;37.710;2023-04-24T04:34:25;22.80;35.00
30290;DHT22;17105;55.652;37.710;2023-04-24T04:35:00;22.70;35.20
30290;DHT22;17105;55.652;37.710;2023-04-24T04:35:38;22.60;35.20
30290;DHT22;17105;55.652;37.710;2023-04-24T04:36:14;22.50;35.20
30290;DHT22;17105;55.652;37.710;2023-04-24T04:36:55;22.50;35.40
30290;DHT22;17105;55.652;37.710;2023-04-24T04:37:44;22.40;35.50
30290;DHT22;17105;55.652;37.710;2023-04-24T04:38:46;22.30;35.40
30290;DHT22;17105;55.652;37.710;2023-04-24T04:39:45;22.20;35.40
30290;DHT22;17105;55.652;37.710;2023-04-24T04:40:26;22.10;35.40
30290;DHT22;17105;55.652;37.710;2023-04-24T04:41:06;22.00;35.20
30290;DHT22;17105;55.652;37.710;2023-04-24T04:41:40;22.00;35.50
30290;DHT22;17105;55.652;37.710;2023-04-24T04:42:15;21.90;35.70
30290;DHT22;17105;55.652;37.710;2023-04-24T04:42:49;22.00;35.70
30290;DHT22;17105;55.652;37.710;2023-04-24T04:43:26;22.10;35.70
30290;DHT22;17105;55.652;37.710;2023-04-24T04:44:01;22.10;35.50
30290;DHT22;17105;55.652;37.710;2023-04-24T04:44:38;22.20;35.50
30290;DHT22;17105;55.652;37.710;2023-04-24T04:45:19;22.40;35.40
30290;DHT22;17105;55.652;37.710;2023-04-24T04:46:14;22.50;35.60
30290;DHT22;17105;55.652;37.710;2023-04-24T04:47:02;22.80;35.40
30290;DHT22;17105;55.652;37.710;2023-04-24T04:47:40;23.10;35.40
30290;DHT22;17105;55.652;37.710;2023-04-24T04:48:51;23.60;34.50
30290;DHT22;17105;55.652;37.710;2023-04-24T04:50:02;23.90;34.70
30290;DHT22;17105;55.652;37.710;2023-04-24T04:51:13;24.30;34.20
30290;DHT22;17105;55.652;37.710;2023-04-24T04:51:48;24.60;34.20
30290;DHT22;17105;55.652;37.710;2023-04-24T04:52:25;24.70;33.30
30290;DHT22;17105;55.652;37.710;2023-04-24T04:53:08;24.80;33.00
30290;DHT22;17105;55.652;37.710;2023-04-24T04:53:44;24.80;32.50
30290;DHT22;17105;55.652;37.710;2023-04-24T04:54:19;24.70;32.20
30290;DHT22;17105;55.652;37.710;2023-04-24T04:54:53;24.70;32.40
30290;DHT22;17105;55.652;37.710;2023-04-24T04:55:34;24.60;32.20
30290;DHT22;17105;55.652;37.710;2023-04-24T04:56:14;24.50;32.30
30290;DHT22;17105;55.652;37.710;2023-04-24T04:56:50;24.40;32.70
30290;DHT22;17105;55.652;37.710;2023-04-24T04:57:25;24.40;32.30
30290;DHT22;17105;55.652;37.710;2023-04-24T04:58:00;24.40;32.00
30290;DHT22;17105;55.652;37.710;2023-04-24T04:58:35;24.30;31.90
30290;DHT22;17105;55.652;37.710;2023-04-24T04:59:11;24.20;31.80
30290;DHT22;17105;55.652;37.710;2023-04-24T04:59:47;24.00;31.90
30290;DHT22;17105;55.652;37.710;2023-04-24T05:00:31;24.00;32.10
30290;DHT22;17105;55.652;37.710;2023-04-24T05:01:19;23.90;32.20
30290;DHT22;17105;55.652;37.710;2023-04-24T05:01:54;23.80;32.30
30290;DHT22;17105;55.652;37.710;2023-04-24T05:02:28;23.70;32.50
30290;DHT22;17105;55.652;37.710;2023-04-24T05:03:04;23.60;32.60
30290;DHT22;17105;55.652;37.710;2023-04-24T05:04:01;23.60;32.80
30290;DHT22;17105;55.652;37.710;2023-04-24T05:04:36;23.50;33.10
30290;DHT22;17105;55.652;37.710;2023-04-24T05:05:11;23.50;33.10
30290;DHT22;17105;55.652;37.710;2023-04-24T05:05:45;23.60;33.10
30290;DHT22;17105;55.652;37.710;2023-04-24T05:06:22;23.70;33.20
30290;DHT22;17105;55.652;37.710;2023-04-24T05:06:57;23.80;33.20
30290;DHT22;17105;55.652;37.710;2023-04-24T05:07:35;23.90;33.30
30290;DHT22;17105;55.652;37.710;2023-04-24T05:08:09;24.10;33.00
30290;DHT22;17105;55.652;37.710;2023-04-24T05:08:59;24.30;33.00
30290;DHT22;17105;55.652;37.710;2023-04-24T05:09:41;24.60;32.80
30290;DHT22;17105;55.652;37.710;2023-04-24T05:10:15;24.90;32.30
30290;DHT22;17105;55.652;37.710;2023-04-24T05:10:52;25.20;31.90
30290;DHT22;17105;55.652;37.710;2023-04-24T05:28:28;26.50;30.70
30290;DHT22;17105;55.652;37.710;2023-04-24T05:29:10;25.50;29.60
30290;DHT22;17105;55.652;37.710;2023-04-24T05:29:44;25.20;29.70
30290;DHT22;17105;55.652;37.710;2023-04-24T05:30:19;25.00;29.80
30290;DHT22;17105;55.652;37.710;2023-04-24T05:30:54;24.90;29.90
30290;DHT22;17105;55.652;37.710;2023-04-24T05:31:30;24.70;30.00
30290;DHT22;17105;55.652;37.710;2023-04-24T05:32:05;24.60;30.10
30290;DHT22;17105;55.652;37.710;2023-04-24T05:32:40;24.50;30.30
30290;DHT22;17105;55.652;37.710;2023-04-24T05:33:14;24.30;30.30
30290;DHT22;17105;55.652;37.710;2023-04-24T05:33:50;24.20;30.30
30290;DHT22;17105;55.652;37.710;2023-04-24T05:34:23;24.10;30.40
30290;DHT22;17105;55.652;37.710;2023-04-24T05:35:01;23.90;30.40
30290;DHT22;17105;55.652;37.710;2023-04-24T05:35:36;23.80;30.70
30290;DHT22;17105;55.652;37.710;2023-04-24T05:36:11;23.70;30.80
30290;DHT22;17105;55.652;37.710;2023-04-24T05:36:47;23.60;30.90
30290;DHT22;17105;55.652;37.710;2023-04-24T05:37:21;23.50;31.10
30290;DHT22;17105;55.652;37.710;2023-04-24T05:37:56;23.50;31.20
30290;DHT22;17105;55.652;37.710;2023-04-24T05:38:32;23.40;31.20
30290;DHT22;17105;55.652;37.710;2023-04-24T05:39:06;23.30;31.40
30290;DHT22;17105;55.652;37.710;2023-04-24T05:39:41;23.20;31.40
30290;DHT22;17105;55.652;37.710;2023-04-24T05:40:17;23.20;31.50
30290;DHT22;17105;55.652;37.710;2023-04-24T05:40:52;23.20;31.60
30290;DHT22;17105;55.652;37.710;2023-04-24T05:41:28;23.10;31.60
30290;DHT22;17105;55.652;37.710;2023-04-24T05:42:04;23.10;31.70
30290;DHT22;17105;55.652;37.710;2023-04-24T05:42:38;23.10;31.90
30290;DHT22;17105;55.652;37.710;2023-04-24T05:43:11;23.20;32.20
30290;DHT22;17105;55.652;37.710;2023-04-24T05:43:47;23.20;32.10
30290;DHT22;17105;55.652;37.710;2023-04-24T05:44:21;23.20;32.00
30290;DHT22;17105;55.652;37.710;2023-04-24T05:44:56;23.10;32.00
30290;DHT22;17105;55.652;37.710;2023-04-24T05:45:31;23.10;32.10
30290;DHT22;17105;55.652;37.710;2023-04-24T05:46:09;23.10;32.10
30290;DHT22;17105;55.652;37.710;2023-04-24T05:46:44;23.10;32.00
30290;DHT22;17105;55.652;37.710;2023-04-24T05:47:18;23.10;32.10
30290;DHT22;17105;55.652;37.710;2023-04-24T05:47:51;23.10;32.20
30290;DHT22;17105;55.652;37.710;2023-04-24T05:48:27;23.10;32.30
30290;DHT22;17105;55.652;37.710;2023-04-24T05:49:02;23.00;32.30
30290;DHT22;17105;55.652;37.710;2023-04-24T05:49:37;23.00;32.40
30290;DHT22;17105;55.652;37.710;2023-04-24T05:50:14;23.00;32.40
30290;DHT22;17105;55.652;37.710;2023-04-24T05:50:48;23.10;32.50
30290;DHT22;17105;55.652;37.710;2023-04-24T05:51:23;23.10;32.60
30290;DHT22;17105;55.652;37.710;2023-04-24T05:51:58;23.10;32.60
30290;DHT22;17105;55.652;37.710;2023-04-24T05:52:33;23.20;32.60
30290;DHT22;17105;55.652;37.710;2023-04-24T05:53:13;23.20;32.40
30290;DHT22;17105;55.652;37.710;2023-04-24T05:53:47;23.20;32.30
30290;DHT22;17105;55.652;37.710;2023-04-24T05:54:23;23.30;32.40
30290;DHT22;17105;55.652;37.710;2023-04-24T05:54:58;23.30;32.40
30290;DHT22;17105;55.652;37.710;2023-04-24T05:55:37;23.40;32.80
30290;DHT22;17105;55.652;37.710;2023-04-24T05:56:12;23.50;32.60
30290;DHT22;17105;55.652;37.710;2023-04-24T05:56:47;23.60;32.40
30290;DHT22;17105;55.652;37.710;2023-04-24T05:57:33;23.70;32.20
30290;DHT22;17105;55.652;37.710;2023-04-24T05:58:09;23.80;32.10
30290;DHT22;17105;55.652;37.710;2023-04-24T05:58:44;23.80;32.00
30290;DHT22;17105;55.652;37.710;2023-04-24T05:59:19;23.80;31.80
30290;DHT22;17105;55.652;37.710;2023-04-24T05:59:56;23.80;31.90
30290;DHT22;17105;55.652;37.710;2023-04-24T06:00:31;23.90;31.90
30290;DHT22;17105;55.652;37.710;2023-04-24T06:01:09;23.90;31.90
30290;DHT22;17105;55.652;37.710;2023-04-24T06:01:45;23.80;31.90
30290;DHT22;17105;55.652;37.710;2023-04-24T06:02:23;23.80;32.00
30290;DHT22;17105;55.652;37.710;2023-04-24T06:02:58;23.80;32.00
30290;DHT22;17105;55.652;37.710;2023-04-24T06:03:33;23.80;32.00
30290;DHT22;17105;55.652;37.710;2023-04-24T06:04:08;23.80;32.10
30290;DHT22;17105;55.652;37.710;2023-04-24T06:04:44;23.80;32.30
30290;DHT22;17105;55.652;37.710;2023-04-24T06:05:18;23.90;32.30
30290;DHT22;17105;55.652;37.710;2023-04-24T06:05:52;24.00;32.40
30290;DHT22;17105;55.652;37.710;2023-04-24T06:06:28;24.20;32.40
30290;DHT22;17105;55.652;37.710;2023-04-24T06:07:01;24.30;32.30
30290;DHT22;17105;55.652;37.710;2023-04-24T06:07:35;24.50;32.30
30290;DHT22;17105;55.652;37.710;2023-04-24T06:08:12;24.70;32.20
30290;DHT22;17105;55.652;37.710;2023-04-24T06:08:48;24.90;32.00
30290;DHT22;17105;55.652;37.710;2023-04-24T06:09:24;25.10;32.00
30290;DHT22;17105;55.652;37.710;2023-04-24T06:09:59;25.40;32.00
30290;DHT22;17105;55.652;37.710;2023-04-24T06:10:39;25.70;32.00
30290;DHT22;17105;55.652;37.710;2023-04-24T06:11:15;26.10;32.00
30290;DHT22;17105;55.652;37.710;2023-04-24T06:11:50;26.40;31.80
30290;DHT22;17105;55.652;37.710;2023-04-24T06:12:30;26.80;31.60
30290;DHT22;17105;55.652;37.710;2023-04-24T06:13:51;27.30;31.20
30290;DHT22;17105;55.652;37.710;2023-04-24T06:15:00;28.90;29.70
30290;DHT22;17105;55.652;37.710;2023-04-24T06:16:39;29.20;30.10
30290;DHT22;17105;55.652;37.710;2023-04-24T06:19:44;32.30;28.40
30290;DHT22;17105;55.652;37.710;2023-04-24T06:20:19;32.40;28.30
30290;DHT22;17105;55.652;37.710;2023-04-24T06:20:54;32.70;28.00
30290;DHT22;17105;55.652;37.710;2023-04-24T06:21:29;33.00;28.20
30290;DHT22;17105;55.652;37.710;2023-04-24T06:22:03;33.20;27.90
30290;DHT22;17105;55.652;37.710;2023-04-24T06:22:39;33.50;27.80
30290;DHT22;17105;55.652;37.710;2023-04-24T06:23:15;33.70;27.70
30290;DHT22;17105;55.652;37.710;2023-04-24T06:23:50;34.10;27.70
30290;DHT22;17105;55.652;37.710;2023-04-24T06:24:27;34.30;27.40
30290;DHT22;17105;55.652;37.710;2023-04-24T06:25:01;34.60;27.20
30290;DHT22;17105;55.652;37.710;2023-04-24T06:25:36;34.80;26.70
30290;DHT22;17105;55.652;37.710;2023-04-24T06:26:12;34.90;26.90
30290;DHT22;17105;55.652;37.710;2023-04-24T06:26:49;35.00;26.50
30290;DHT22;17105;55.652;37.710;2023-04-24T06:27:23;35.10;26.40
30290;DHT22;17105;55.652;37.710;2023-04-24T06:27:58;35.00;26.20
30290;DHT22;17105;55.652;37.710;2023-04-24T06:28:35;34.90;26.40
30290;DHT22;17105;55.652;37.710;2023-04-24T06:29:11;34.90;26.30
30290;DHT22;17105;55.652;37.710;2023-04-24T06:31:01;35.30;25.70
30290;DHT22;17105;55.652;37.710;2023-04-24T06:31:35;35.40;26.00
30290;DHT22;17105;55.652;37.710;2023-04-24T06:32:10;35.40;25.80
30290;DHT22;17105;55.652;37.710;2023-04-24T06:32:45;35.40;25.80
30290;DHT22;17105;55.652;37.710;2023-04-24T06:33:20;35.40;25.90
30290;DHT22;17105;55.652;37.710;2023-04-24T06:33:55;35.40;26.00
30290;DHT22;17105;55.652;37.710;2023-04-24T06:34:30;35.40;25.90
30290;DHT22;17105;55.652;37.710;2023-04-24T06:35:07;35.40;25.90
30290;DHT22;17105;55.652;37.710;2023-04-24T06:35:43;35.40;25.90
30290;DHT22;17105;55.652;37.710;2023-04-24T06:36:18;35.30;25.90
30290;DHT22;17105;55.652;37.710;2023-04-24T06:36:53;35.30;25.80
30290;DHT22;17105;55.652;37.710;2023-04-24T06:37:27;35.20;25.60
30290;DHT22;17105;55.652;37.710;2023-04-24T06:38:02;35.10;25.70
30290;DHT22;17105;55.652;37.710;2023-04-24T06:38:37;35.00;25.70
30290;DHT22;17105;55.652;37.710;2023-04-24T06:39:12;34.80;25.60
30290;DHT22;17105;55.652;37.710;2023-04-24T06:39:47;34.70;25.70
30290;DHT22;17105;55.652;37.710;2023-04-24T06:40:21;34.60;25.80
30290;DHT22;17105;55.652;37.710;2023-04-24T06:40:57;34.60;26.00
30290;DHT22;17105;55.652;37.710;2023-04-24T06:41:31;34.60;26.00
30290;DHT22;17105;55.652;37.710;2023-04-24T06:42:07;34.60;25.90
30290;DHT22;17105;55.652;37.710;2023-04-24T06:42:44;34.60;26.00
30290;DHT22;17105;55.652;37.710;2023-04-24T06:43:19;34.60;26.00
30290;DHT22;17105;55.652;37.710;2023-04-24T06:43:55;34.60;26.00
30290;DHT22;17105;55.652;37.710;2023-04-24T06:44:29;34.60;25.90
30290;DHT22;17105;55.652;37.710;2023-04-24T06:45:03;34.60;26.00
30290;DHT22;17105;55.652;37.710;2023-04-24T06:45:39;34.60;25.90
30290;DHT22;17105;55.652;37.710;2023-04-24T06:46:13;34.50;25.70
30290;DHT22;17105;55.652;37.710;2023-04-24T06:46:47;34.40;25.60
30290;DHT22;17105;55.652;37.710;2023-04-24T06:47:22;34.40;25.60
30290;DHT22;17105;55.652;37.710;2023-04-24T06:47:57;34.40;25.80
30290;DHT22;17105;55.652;37.710;2023-04-24T06:48:32;34.40;25.50
30290;DHT22;17105;55.652;37.710;2023-04-24T06:49:07;34.50;25.60
30290;DHT22;17105;55.652;37.710;2023-04-24T06:49:40;34.50;25.60
30290;DHT22;17105;55.652;37.710;2023-04-24T06:50:16;34.70;25.70
30290;DHT22;17105;55.652;37.710;2023-04-24T06:50:51;34.80;25.80
30290;DHT22;17105;55.652;37.710;2023-04-24T06:51:26;35.10;25.70
30290;DHT22;17105;55.652;37.710;2023-04-24T06:52:01;35.20;25.70
30290;DHT22;17105;55.652;37.710;2023-04-24T06:52:34;35.60;25.70
30290;DHT22;17105;55.652;37.710;2023-04-24T06:53:08;35.80;25.70
30290;DHT22;17105;55.652;37.710;2023-04-24T06:53:46;36.10;25.60
30290;DHT22;17105;55.652;37.710;2023-04-24T06:54:20;36.50;25.50
30290;DHT22;17105;55.652;37.710;2023-04-24T06:55:00;36.80;25.40
30290;DHT22;17105;55.652;37.710;2023-04-24T06:55:36;37.10;25.20
30290;DHT22;17105;55.652;37.710;2023-04-24T06:56:11;37.40;25.10
30290;DHT22;17105;55.652;37.710;2023-04-24T06:56:45;37.70;25.10
30290;DHT22;17105;55.652;37.710;2023-04-24T10:21:40;28.70;23.60
30290;DHT22;17105;55.652;37.710;2023-04-24T10:22:19;29.00;24.20